Time;durP1;ratioP1;P1;durP2;ratioP2;P2;SDS_P1;SDS_P2;PMS_P1;PMS_P2;Temp;Humidity;BMP_temperature;BMP_pressure;BME280_temperature;BME280_humidity;BME280_pressure;Samples;Min_cycle;Max_cycle;Signal;HPM_P1;HPM_P2
2023/05/04 00:00:24;;;;;;;30.33;7.05;;;8.40;99.90;;;;;;5035781;28;20045;-80
2023/05/04 00:02:50;;;;;;;23.58;6.65;;;8.40;99.90;;;;;;5035886;28;20050;-83
2023/05/04 00:05:17;;;;;;;22.35;6.20;;;8.40;99.90;;;;;;5020059;28;20378;-80
2023/05/04 00:07:44;;;;;;;19.67;6.25;;;8.40;99.90;;;;;;5035424;28;20486;-80
2023/05/04 00:10:10;;;;;;;21.55;6.68;;;8.40;99.90;;;;;;5036528;28;20045;-81
2023/05/04 00:12:37;;;;;;;21.92;6.03;;;8.40;99.90;;;;;;5035888;28;20047;-82
2023/05/04 00:15:04;;;;;;;23.17;6.72;;;8.40;99.90;;;;;;5050549;28;20471;-80
2023/05/04 00:17:31;;;;;;;21.20;7.15;;;8.40;99.90;;;;;;5057035;28;20040;-80
2023/05/04 00:19:57;;;;;;;16.25;5.68;;;8.40;99.90;;;;;;5056239;28;20043;-80
2023/05/04 00:22:24;;;;;;;16.40;5.97;;;8.40;99.90;;;;;;5054558;28;20063;-80
2023/05/04 00:24:51;;;;;;;17.00;6.18;;;8.40;99.90;;;;;;5055971;28;20447;-81
2023/05/04 00:27:17;;;;;;;23.90;6.53;;;8.40;99.90;;;;;;5055871;28;20052;-80
2023/05/04 00:29:44;;;;;;;16.65;6.45;;;8.40;99.90;;;;;;5055958;28;20528;-81
2023/05/04 00:32:11;;;;;;;27.80;6.40;;;8.30;99.90;;;;;;5056273;28;20071;-80
2023/05/04 00:34:37;;;;;;;29.80;7.53;;;8.40;99.90;;;;;;5055561;28;20041;-81
2023/05/04 00:37:05;;;;;;;35.00;8.10;;;8.40;99.90;;;;;;5055795;28;20059;-81
2023/05/04 00:39:34;;;;;;;26.67;7.40;;;8.40;99.90;;;;;;5055800;28;20037;-82
2023/05/04 00:42:01;;;;;;;24.02;7.82;;;8.40;99.90;;;;;;5055452;28;20037;-81
2023/05/04 00:44:28;;;;;;;30.35;8.93;;;8.40;99.90;;;;;;5056677;28;20072;-82
2023/05/04 00:46:55;;;;;;;31.10;7.80;;;8.40;99.90;;;;;;5054716;28;20422;-81
2023/05/04 00:49:22;;;;;;;32.50;7.57;;;8.40;99.90;;;;;;5055692;28;20368;-84
2023/05/04 00:51:50;;;;;;;24.20;7.72;;;8.40;99.90;;;;;;5055445;28;20111;-83
2023/05/04 00:54:17;;;;;;;34.95;8.48;;;8.40;99.90;;;;;;5031024;28;20052;-82
2023/05/04 00:56:43;;;;;;;30.52;8.57;;;8.40;99.90;;;;;;5032305;28;20048;-82
2023/05/04 00:59:12;;;;;;;25.98;8.25;;;8.40;99.90;;;;;;5015532;28;20465;-80
2023/05/04 01:01:39;;;;;;;31.80;9.90;;;8.40;99.90;;;;;;5031209;28;20042;-82
2023/05/04 01:04:05;;;;;;;28.83;8.85;;;8.40;99.90;;;;;;5016394;28;20053;-81
2023/05/04 01:06:32;;;;;;;21.00;8.02;;;8.30;99.90;;;;;;5015535;28;20033;-80
2023/05/04 01:08:59;;;;;;;29.08;9.10;;;8.40;99.90;;;;;;5030998;28;20046;-82
2023/05/04 01:11:26;;;;;;;29.83;9.80;;;8.30;99.90;;;;;;5015352;28;20038;-80
2023/05/04 01:13:52;;;;;;;31.20;9.15;;;8.40;99.90;;;;;;5030273;28;20125;-80
2023/05/04 01:16:21;;;;;;;25.25;8.63;;;8.40;99.90;;;;;;5032074;28;20042;-83
2023/05/04 01:18:47;;;;;;;35.80;8.85;;;8.40;99.90;;;;;;5031631;28;20046;-82
2023/05/04 01:21:14;;;;;;;29.80;8.95;;;8.40;99.90;;;;;;5030587;28;20038;-81
2023/05/04 01:23:40;;;;;;;33.28;8.95;;;8.40;99.90;;;;;;5014777;28;20066;-81
2023/05/04 01:26:07;;;;;;;30.83;9.38;;;8.40;99.90;;;;;;5031724;28;20049;-82
2023/05/04 01:28:34;;;;;;;37.20;9.32;;;8.50;99.90;;;;;;5013928;28;20049;-82
2023/05/04 01:31:01;;;;;;;28.02;8.25;;;8.40;99.90;;;;;;5031403;28;20041;-80
2023/05/04 01:33:28;;;;;;;40.58;10.07;;;8.50;99.90;;;;;;5015771;28;20248;-80
2023/05/04 01:35:56;;;;;;;29.50;9.63;;;8.50;99.90;;;;;;5014722;28;20451;-81
2023/05/04 01:38:24;;;;;;;29.45;9.18;;;8.50;99.90;;;;;;5031172;28;20045;-81
2023/05/04 01:40:50;;;;;;;33.65;10.90;;;8.50;99.90;;;;;;5013766;28;20384;-82
2023/05/04 01:43:17;;;;;;;29.77;9.75;;;8.50;99.90;;;;;;5014280;28;20057;-81
2023/05/04 01:45:44;;;;;;;31.52;8.95;;;8.50;99.90;;;;;;5015669;28;20049;-81
2023/05/04 01:48:12;;;;;;;28.63;8.85;;;8.50;99.90;;;;;;5013066;28;20050;-82
2023/05/04 01:50:38;;;;;;;27.58;9.40;;;8.50;99.90;;;;;;5015858;28;20042;-80
2023/05/04 01:53:06;;;;;;;30.00;10.60;;;8.50;99.90;;;;;;5033952;28;20448;-82
2023/05/04 01:55:32;;;;;;;36.83;9.85;;;8.50;99.90;;;;;;5033329;28;20053;-82
2023/05/04 01:57:59;;;;;;;30.98;9.30;;;8.50;99.90;;;;;;5034316;28;20065;-81
2023/05/04 02:00:26;;;;;;;26.90;9.88;;;8.50;99.90;;;;;;5033440;28;20045;-80
2023/05/04 02:02:52;;;;;;;30.95;10.15;;;8.50;99.90;;;;;;5033781;28;20051;-82
2023/05/04 02:05:19;;;;;;;39.75;10.68;;;8.60;99.90;;;;;;5034159;28;20033;-81
2023/05/04 02:07:47;;;;;;;25.55;9.75;;;8.60;99.90;;;;;;5032964;28;20365;-82
2023/05/04 02:10:14;;;;;;;24.95;9.75;;;8.60;99.90;;;;;;5034098;28;20037;-81
2023/05/04 02:12:41;;;;;;;29.20;9.13;;;8.60;99.90;;;;;;5033912;28;20103;-81
2023/05/04 02:15:08;;;;;;;26.40;10.32;;;8.60;99.90;;;;;;5016733;28;20047;-81
2023/05/04 02:17:35;;;;;;;28.75;9.50;;;8.60;99.90;;;;;;5034045;28;20065;-80
2023/05/04 02:20:03;;;;;;;23.42;10.43;;;8.70;99.90;;;;;;5017586;28;20481;-81
2023/05/04 02:22:30;;;;;;;34.58;10.05;;;8.70;99.90;;;;;;5032299;28;20048;-82
2023/05/04 02:24:57;;;;;;;24.25;9.30;;;8.80;99.90;;;;;;5033887;28;20037;-81
2023/05/04 02:27:23;;;;;;;31.75;10.50;;;8.80;99.90;;;;;;5032638;28;20045;-82
2023/05/04 02:29:50;;;;;;;32.35;11.05;;;8.80;99.90;;;;;;5033797;28;20044;-81
2023/05/04 02:32:17;;;;;;;29.42;10.38;;;8.80;99.90;;;;;;5033466;28;20041;-80
2023/05/04 02:34:43;;;;;;;35.10;11.25;;;8.80;99.90;;;;;;5032689;28;20455;-82
2023/05/04 02:37:10;;;;;;;37.25;11.32;;;8.80;99.90;;;;;;5033795;28;20041;-80
2023/05/04 02:39:37;;;;;;;30.58;11.70;;;8.80;99.90;;;;;;5034025;28;20057;-82
2023/05/04 02:42:03;;;;;;;32.15;10.93;;;8.80;99.90;;;;;;5032229;28;20057;-82
2023/05/04 02:44:30;;;;;;;36.88;11.20;;;8.80;99.90;;;;;;5033627;28;20088;-82
2023/05/04 02:46:56;;;;;;;35.00;10.95;;;8.80;99.90;;;;;;5033423;28;20465;-80
2023/05/04 02:49:23;;;;;;;29.33;10.93;;;8.80;99.90;;;;;;5033470;28;20044;-82
2023/05/04 02:51:50;;;;;;;29.13;10.57;;;8.80;99.90;;;;;;5033188;28;20033;-82
2023/05/04 02:54:16;;;;;;;27.95;11.13;;;8.70;99.90;;;;;;5012902;28;20429;-81
2023/05/04 02:56:43;;;;;;;27.73;10.27;;;8.70;99.90;;;;;;5029939;28;20042;-81
2023/05/04 02:59:10;;;;;;;29.08;11.88;;;8.70;99.90;;;;;;5013282;28;20048;-81
2023/05/04 03:01:36;;;;;;;32.60;12.05;;;8.70;99.90;;;;;;5028226;28;20045;-81
2023/05/04 03:04:03;;;;;;;23.08;9.95;;;8.70;99.90;;;;;;5014456;28;20085;-81
2023/05/04 03:06:30;;;;;;;32.00;11.48;;;8.70;99.90;;;;;;5014588;28;20096;-80
2023/05/04 03:08:56;;;;;;;31.65;11.35;;;8.70;99.90;;;;;;5013513;28;20042;-82
2023/05/04 03:11:23;;;;;;;42.95;11.23;;;8.60;99.90;;;;;;5014591;28;20044;-81
2023/05/04 03:13:50;;;;;;;30.08;10.30;;;8.60;99.90;;;;;;5012194;28;20380;-82
2023/05/04 03:16:17;;;;;;;34.15;11.15;;;8.60;99.90;;;;;;5013371;28;20056;-81
2023/05/04 03:18:44;;;;;;;31.42;11.00;;;8.60;99.90;;;;;;5013425;28;20056;-82
2023/05/04 03:21:23;;;;;;;36.05;11.82;;;8.70;99.90;;;;;;5027089;28;20090;-80
2023/05/04 03:23:50;;;;;;;39.47;13.25;;;8.70;99.90;;;;;;5012913;28;20038;-83
2023/05/04 03:26:17;;;;;;;33.35;12.27;;;8.70;99.90;;;;;;5013289;28;20144;-82
2023/05/04 03:28:44;;;;;;;42.17;12.40;;;8.70;99.90;;;;;;5028743;28;20391;-80
2023/05/04 03:31:12;;;;;;;36.78;11.65;;;8.70;99.90;;;;;;5029886;28;20108;-80
2023/05/04 03:33:39;;;;;;;30.30;11.45;;;8.80;99.90;;;;;;5011712;28;20042;-82
2023/05/04 03:36:08;;;;;;;32.78;11.60;;;8.80;99.90;;;;;;5013307;28;20058;-81
2023/05/04 03:38:36;;;;;;;35.45;11.98;;;8.80;99.90;;;;;;5013250;28;20120;-81
2023/05/04 03:41:03;;;;;;;37.03;11.73;;;8.80;99.90;;;;;;5028571;28;20369;-82
2023/05/04 03:43:30;;;;;;;30.83;12.07;;;8.80;99.90;;;;;;5012682;28;20049;-82
2023/05/04 03:45:58;;;;;;;38.45;11.77;;;8.80;99.90;;;;;;5029474;28;20060;-81
2023/05/04 03:48:24;;;;;;;40.40;14.07;;;8.80;99.90;;;;;;5028652;28;20108;-82
2023/05/04 03:50:52;;;;;;;27.83;10.32;;;8.80;99.90;;;;;;5013263;28;20072;-80
2023/05/04 03:53:19;;;;;;;35.88;11.85;;;8.80;99.90;;;;;;5037681;28;20042;-80
2023/05/04 03:55:45;;;;;;;33.90;11.82;;;8.90;99.90;;;;;;5028639;28;20049;-81
2023/05/04 03:58:12;;;;;;;36.72;13.15;;;8.90;99.90;;;;;;5013919;28;20046;-80
2023/05/04 04:00:39;;;;;;;32.10;12.65;;;8.90;99.90;;;;;;5012338;28;20046;-80
2023/05/04 04:03:11;;;;;;;30.50;11.40;;;8.90;99.90;;;;;;4996909;28;20046;-82
2023/05/04 04:05:38;;;;;;;31.02;11.65;;;8.90;99.90;;;;;;4996753;28;20042;-81
2023/05/04 04:08:05;;;;;;;37.33;12.43;;;8.90;99.90;;;;;;5012143;28;20033;-83
2023/05/04 04:10:31;;;;;;;33.17;11.88;;;8.90;99.90;;;;;;5013041;28;20396;-81
2023/05/04 04:12:58;;;;;;;37.50;12.00;;;8.90;99.90;;;;;;4999483;28;20078;-82
2023/05/04 04:15:25;;;;;;;32.95;11.82;;;8.90;99.90;;;;;;5016367;28;20069;-80
2023/05/04 04:17:52;;;;;;;35.20;12.27;;;8.90;99.90;;;;;;5000393;28;20380;-81
2023/05/04 04:20:18;;;;;;;33.35;11.73;;;9.00;99.90;;;;;;5015519;28;20473;-81
2023/05/04 04:22:45;;;;;;;31.67;10.98;;;9.00;99.90;;;;;;5016956;28;20146;-80
2023/05/04 04:25:12;;;;;;;35.30;12.45;;;9.00;99.90;;;;;;5017471;28;20056;-80
2023/05/04 04:27:39;;;;;;;38.13;14.48;;;9.00;99.90;;;;;;5015384;28;20048;-82
2023/05/04 04:30:06;;;;;;;40.22;13.48;;;9.10;99.90;;;;;;5000409;28;20046;-81
2023/05/04 04:32:33;;;;;;;42.47;13.07;;;9.10;99.90;;;;;;5016012;28;20354;-79
2023/05/04 04:35:00;;;;;;;33.80;12.75;;;9.10;99.90;;;;;;5015270;28;20492;-79
2023/05/04 04:37:27;;;;;;;34.90;13.65;;;9.20;99.90;;;;;;5017247;28;20054;-82
2023/05/04 04:39:53;;;;;;;38.05;14.45;;;9.20;99.90;;;;;;4999816;28;20530;-79
2023/05/04 04:42:20;;;;;;;33.85;13.40;;;9.20;99.90;;;;;;5014625;28;20049;-80
2023/05/04 04:44:48;;;;;;;38.25;13.85;;;9.20;99.90;;;;;;5017072;28;20046;-79
2023/05/04 04:47:15;;;;;;;46.80;15.20;;;9.30;99.90;;;;;;5015926;28;20205;-81
2023/05/04 04:49:43;;;;;;;40.67;14.02;;;9.30;99.90;;;;;;5016997;28;20037;-81
2023/05/04 04:52:09;;;;;;;36.47;13.57;;;9.30;99.90;;;;;;5019140;28;20424;-80
2023/05/04 04:54:37;;;;;;;36.90;14.15;;;9.40;99.90;;;;;;5035866;28;20045;-81
2023/05/04 04:57:04;;;;;;;36.17;12.48;;;9.40;99.90;;;;;;5036723;28;20052;-79
2023/05/04 04:59:31;;;;;;;37.05;13.95;;;9.40;99.90;;;;;;5035648;28;20045;-80
2023/05/04 05:01:59;;;;;;;35.47;13.45;;;9.60;99.90;;;;;;5034097;28;20411;-79
2023/05/04 05:04:26;;;;;;;39.38;13.77;;;9.60;99.90;;;;;;5035574;28;20047;-80
2023/05/04 05:06:53;;;;;;;38.15;14.05;;;9.60;99.90;;;;;;5035509;28;20044;-81
2023/05/04 05:09:19;;;;;;;36.58;13.50;;;9.70;99.90;;;;;;5035992;28;20099;-81
2023/05/04 05:11:46;;;;;;;34.45;14.00;;;9.70;99.90;;;;;;5034864;28;20047;-80
2023/05/04 05:14:12;;;;;;;34.92;13.20;;;9.80;99.90;;;;;;5035257;28;20049;-80
2023/05/04 05:16:39;;;;;;;34.15;13.30;;;9.80;99.90;;;;;;5036149;28;20050;-81
2023/05/04 05:19:07;;;;;;;44.65;13.27;;;9.90;99.90;;;;;;5035000;28;20049;-81
2023/05/04 05:21:33;;;;;;;33.83;13.60;;;9.90;99.90;;;;;;5034595;28;20452;-79
2023/05/04 05:24:00;;;;;;;36.72;13.18;;;9.90;99.90;;;;;;5033973;28;20060;-81
2023/05/04 05:26:27;;;;;;;36.85;13.57;;;10.00;99.90;;;;;;5035145;28;20045;-81
2023/05/04 05:28:53;;;;;;;38.63;13.18;;;10.00;99.90;;;;;;5034835;28;20045;-82
2023/05/04 05:31:20;;;;;;;29.13;12.00;;;10.10;99.90;;;;;;5034714;28;20037;-80
2023/05/04 05:33:47;;;;;;;39.28;13.77;;;10.10;99.90;;;;;;5034841;28;20137;-80
2023/05/04 05:36:14;;;;;;;41.92;12.43;;;10.10;99.90;;;;;;5034985;28;20108;-81
2023/05/04 05:38:41;;;;;;;31.40;12.30;;;10.20;99.90;;;;;;5035042;28;20041;-79
2023/05/04 05:41:08;;;;;;;34.20;12.98;;;10.20;99.90;;;;;;5034704;28;20060;-79
2023/05/04 05:43:37;;;;;;;35.75;13.20;;;10.20;99.90;;;;;;5034354;28;20049;-79
2023/05/04 05:46:04;;;;;;;31.23;13.60;;;10.30;99.90;;;;;;5037459;28;20041;-79
2023/05/04 05:48:31;;;;;;;37.28;12.98;;;10.40;99.90;;;;;;5037234;28;20045;-80
2023/05/04 05:50:57;;;;;;;31.10;12.63;;;10.40;99.90;;;;;;5021445;28;20048;-80
2023/05/04 05:53:24;;;;;;;37.20;13.57;;;10.50;99.90;;;;;;5037262;28;20049;-81
2023/05/04 05:55:51;;;;;;;41.20;13.77;;;10.50;99.90;;;;;;5037039;28;20506;-80
2023/05/04 05:58:17;;;;;;;38.22;13.23;;;10.60;99.90;;;;;;5037980;28;20048;-80
2023/05/04 06:00:44;;;;;;;31.48;13.10;;;10.70;99.90;;;;;;5036609;28;20099;-79
2023/05/04 06:03:10;;;;;;;36.92;12.00;;;10.80;99.90;;;;;;5037449;28;20511;-81
2023/05/04 06:05:40;;;;;;;35.20;12.27;;;10.90;99.90;;;;;;5037350;28;20037;-79
2023/05/04 06:08:07;;;;;;;31.67;12.98;;;11.00;99.90;;;;;;5036451;28;20511;-81
2023/05/04 06:10:34;;;;;;;34.03;12.80;;;11.10;99.90;;;;;;5055252;28;20041;-79
2023/05/04 06:13:00;;;;;;;31.05;12.10;;;11.10;99.90;;;;;;5054729;28;20052;-79
2023/05/04 06:15:27;;;;;;;33.65;11.63;;;11.10;99.90;;;;;;5036528;28;20041;-81
2023/05/04 06:17:54;;;;;;;32.05;12.85;;;11.20;99.90;;;;;;5037365;28;20065;-81
2023/05/04 06:20:21;;;;;;;30.85;11.50;;;11.30;99.90;;;;;;5036274;28;20045;-82
2023/05/04 06:22:48;;;;;;;36.33;13.55;;;11.30;99.90;;;;;;5054606;28;20406;-80
2023/05/04 06:25:14;;;;;;;34.40;14.52;;;11.50;99.90;;;;;;5037188;28;20051;-81
2023/05/04 06:27:41;;;;;;;34.30;13.35;;;11.70;99.90;;;;;;5036033;28;20083;-80
2023/05/04 06:30:08;;;;;;;36.90;11.75;;;11.80;99.90;;;;;;5037353;28;20040;-80
2023/05/04 06:32:35;;;;;;;29.65;12.07;;;11.90;99.90;;;;;;5020580;28;20055;-81
2023/05/04 06:35:02;;;;;;;29.10;12.05;;;12.00;99.90;;;;;;5054243;28;20120;-82
2023/05/04 06:37:29;;;;;;;30.52;12.27;;;12.20;99.90;;;;;;5054800;28;20040;-81
2023/05/04 06:39:55;;;;;;;29.52;12.48;;;12.20;99.90;;;;;;5044840;28;20150;-80
2023/05/04 06:42:22;;;;;;;31.27;13.15;;;12.30;99.90;;;;;;5021721;28;20042;-80
2023/05/04 06:44:49;;;;;;;34.85;12.85;;;12.30;99.90;;;;;;5005710;28;20103;-82
2023/05/04 06:47:16;;;;;;;34.35;13.07;;;12.40;99.90;;;;;;5018247;28;20319;-79
2023/05/04 06:49:43;;;;;;;29.30;12.77;;;12.50;99.90;;;;;;5034444;28;20064;-82
2023/05/04 06:52:10;;;;;;;41.25;14.05;;;12.60;99.90;;;;;;5030738;28;20052;-79
2023/05/04 06:54:38;;;;;;;29.20;12.60;;;12.70;99.90;;;;;;5013744;28;20380;-81
2023/05/04 06:57:05;;;;;;;34.05;13.98;;;12.80;99.90;;;;;;5014764;28;20057;-79
2023/05/04 06:59:32;;;;;;;29.42;12.75;;;12.90;99.90;;;;;;5014602;28;20041;-80
2023/05/04 07:01:59;;;;;;;29.70;12.32;;;12.90;99.90;;;;;;5013142;28;20116;-81
2023/05/04 07:04:25;;;;;;;30.08;12.48;;;12.90;99.90;;;;;;5014331;28;20037;-82
2023/05/04 07:06:52;;;;;;;35.83;13.00;;;12.90;99.90;;;;;;5013061;28;20042;-80
2023/05/04 07:09:19;;;;;;;26.80;13.35;;;13.00;99.90;;;;;;5013417;28;20042;-80
2023/05/04 07:11:47;;;;;;;32.83;13.23;;;13.20;99.90;;;;;;4996949;28;20065;-82
2023/05/04 07:14:14;;;;;;;25.60;12.18;;;13.40;99.90;;;;;;5013281;28;20050;-81
2023/05/04 07:16:40;;;;;;;28.95;13.73;;;13.70;99.90;;;;;;5017313;28;20046;-83
2023/05/04 07:19:07;;;;;;;35.75;12.48;;;13.80;99.90;;;;;;5017512;28;20070;-84
2023/05/04 07:21:34;;;;;;;36.10;14.05;;;14.10;99.90;;;;;;5008979;28;20057;-84
2023/05/04 07:24:00;;;;;;;31.60;13.43;;;14.30;99.90;;;;;;5033268;28;20056;-80
2023/05/04 07:26:27;;;;;;;35.15;12.70;;;14.30;99.90;;;;;;5030407;28;20472;-83
2023/05/04 07:28:55;;;;;;;33.28;12.70;;;14.10;99.90;;;;;;5018305;28;20420;-82
2023/05/04 07:31:21;;;;;;;28.08;11.77;;;14.00;99.90;;;;;;5013005;28;20053;-82
2023/05/04 07:33:48;;;;;;;34.50;13.23;;;14.00;99.90;;;;;;4997132;28;20065;-87
2023/05/04 07:36:15;;;;;;;28.98;13.10;;;14.00;99.90;;;;;;4997080;28;20053;-82
2023/05/04 07:38:42;;;;;;;33.80;12.65;;;14.20;99.90;;;;;;5013810;28;20054;-86
2023/05/04 07:41:09;;;;;;;34.08;12.68;;;14.40;99.90;;;;;;5020211;28;20088;-81
2023/05/04 07:43:35;;;;;;;28.58;12.63;;;14.50;99.90;;;;;;5023050;28;20033;-83
2023/05/04 07:46:03;;;;;;;30.45;12.75;;;14.50;99.90;;;;;;5013888;28;20033;-83
2023/05/04 07:48:30;;;;;;;33.38;11.70;;;14.40;99.90;;;;;;5024123;28;20496;-83
2023/05/04 07:50:57;;;;;;;32.80;13.25;;;14.10;99.90;;;;;;5020679;28;20033;-84
2023/05/04 07:53:25;;;;;;;29.50;12.63;;;14.00;99.90;;;;;;5038138;28;20048;-83
2023/05/04 07:55:59;;;;;;;28.80;12.30;;;13.80;99.90;;;;;;5020270;28;20475;-83
2023/05/04 08:01:11;;;;;;;25.95;12.60;;;13.60;99.90;;;;;;5036250;28;20057;-82
2023/05/04 08:03:39;;;;;;;34.30;12.93;;;13.60;99.90;;;;;;5020437;28;20118;-85
2023/05/04 08:06:05;;;;;;;29.20;12.45;;;13.80;99.90;;;;;;5037241;28;20099;-84
2023/05/04 08:11:19;;;;;;;30.33;12.45;;;14.70;99.90;;;;;;5034846;28;20136;-85
2023/05/04 08:13:46;;;;;;;30.75;11.82;;;14.70;99.90;;;;;;5021876;28;20140;-85
2023/05/04 08:16:13;;;;;;;25.13;11.75;;;14.80;99.90;;;;;;5036625;28;20088;-84
2023/05/04 08:21:33;;;;;;;28.70;12.25;;;15.00;99.90;;;;;;5022452;28;20041;-84
2023/05/04 08:23:59;;;;;;;22.40;11.65;;;14.90;99.90;;;;;;5049114;28;20054;-81
2023/05/04 08:26:26;;;;;;;30.83;11.52;;;15.00;99.90;;;;;;5020585;28;20056;-83
2023/05/04 08:31:40;;;;;;;26.30;11.18;;;14.90;99.90;;;;;;5028962;28;20042;-81
2023/05/04 08:34:07;;;;;;;24.02;11.50;;;14.90;99.90;;;;;;4999694;28;20081;-81
2023/05/04 08:36:33;;;;;;;31.60;12.07;;;14.90;99.90;;;;;;5000647;28;20060;-83
2023/05/04 08:41:50;;;;;;;30.30;10.38;;;15.20;99.90;;;;;;5015818;28;20046;-82
2023/05/04 08:44:16;;;;;;;33.92;12.23;;;15.40;99.90;;;;;;5049385;28;20041;-81
2023/05/04 08:46:43;;;;;;;25.63;11.50;;;15.60;99.90;;;;;;5057022;28;20438;-81
2023/05/04 08:49:11;;;;;;;29.67;12.48;;;15.80;99.90;;;;;;5056320;28;20376;-82
2023/05/04 08:51:37;;;;;;;27.35;12.18;;;16.00;99.90;;;;;;5056867;28;20123;-80
2023/05/04 08:54:04;;;;;;;34.00;12.45;;;16.00;99.90;;;;;;5037078;28;20423;-81
2023/05/04 08:56:30;;;;;;;30.90;12.88;;;15.80;99.90;;;;;;5036090;28;20053;-80
2023/05/04 08:59:00;;;;;;;31.42;12.32;;;15.70;99.90;;;;;;5035386;28;20045;-82
2023/05/04 09:01:27;;;;;;;28.35;11.07;;;15.50;99.90;;;;;;5035104;28;20144;-84
2023/05/04 09:03:54;;;;;;;26.05;11.13;;;15.40;99.90;;;;;;5035916;28;20041;-81
2023/05/04 09:06:21;;;;;;;37.28;12.82;;;15.70;99.90;;;;;;5019334;28;20595;-83
2023/05/04 09:11:35;;;;;;;30.88;12.30;;;16.00;99.90;;;;;;5036942;28;20411;-82
2023/05/04 09:14:02;;;;;;;27.88;10.77;;;15.90;99.90;;;;;;5034679;28;20041;-85
2023/05/04 09:16:32;;;;;;;31.23;11.20;;;15.70;99.90;;;;;;5036789;28;20072;-85
2023/05/04 09:22:15;;;;;;;31.25;12.82;;;15.90;99.90;;;;;;4981824;28;20049;-84
2023/05/04 09:24:46;;;;;;;28.98;11.73;;;15.90;99.90;;;;;;5014648;28;20038;-84
2023/05/04 09:27:13;;;;;;;31.45;12.70;;;15.80;99.90;;;;;;5011288;28;20041;-85
2023/05/04 09:32:25;;;;;;;38.67;12.68;;;16.10;99.90;;;;;;5024157;28;20129;-83
2023/05/04 09:34:52;;;;;;;34.42;12.48;;;16.40;99.90;;;;;;5015163;28;20061;-81
2023/05/04 09:37:22;;;;;;;27.85;10.55;;;16.50;99.90;;;;;;5014668;28;20048;-84
2023/05/04 09:39:49;;;;;;;28.00;12.75;;;16.50;99.90;;;;;;5015033;28;20096;-84
2023/05/04 09:42:17;;;;;;;32.75;11.65;;;16.70;99.90;;;;;;5013911;28;20045;-84
2023/05/04 09:44:44;;;;;;;29.35;11.98;;;16.80;99.90;;;;;;5015878;28;20046;-84
2023/05/04 09:47:11;;;;;;;35.60;12.15;;;17.00;99.90;;;;;;5013622;28;20061;-83
2023/05/04 09:49:38;;;;;;;28.00;11.07;;;17.10;99.90;;;;;;5014824;28;20046;-86
2023/05/04 09:52:04;;;;;;;30.05;12.57;;;17.50;99.90;;;;;;5017702;28;20034;-85
2023/05/04 09:54:33;;;;;;;29.25;11.98;;;17.70;99.90;;;;;;5017379;28;20140;-86
2023/05/04 09:57:00;;;;;;;26.98;11.35;;;17.80;99.90;;;;;;5028361;28;20038;-82
2023/05/04 09:59:27;;;;;;;27.48;11.50;;;17.90;99.90;;;;;;5014619;28;20116;-85
2023/05/04 10:01:54;;;;;;;33.13;11.98;;;17.90;99.90;;;;;;5002779;28;20041;-85
2023/05/04 10:04:20;;;;;;;26.65;11.98;;;18.10;99.90;;;;;;5034276;28;20448;-85
2023/05/04 10:06:47;;;;;;;30.45;12.15;;;18.30;99.90;;;;;;5029731;28;20034;-85
2023/05/04 10:09:14;;;;;;;27.75;10.52;;;18.20;99.90;;;;;;4996349;28;20437;-83
2023/05/04 10:11:41;;;;;;;26.02;12.73;;;18.20;99.90;;;;;;5015365;28;20050;-83
2023/05/04 10:14:07;;;;;;;20.63;10.48;;;17.90;99.90;;;;;;5013580;28;20042;-82
2023/05/04 10:16:34;;;;;;;26.42;11.50;;;17.80;99.90;;;;;;5013960;28;20046;-81
2023/05/04 10:19:01;;;;;;;23.83;10.43;;;17.80;99.90;;;;;;5014203;28;20046;-83
2023/05/04 10:21:28;;;;;;;26.48;11.02;;;17.90;99.90;;;;;;5012947;28;20113;-85
2023/05/04 10:23:55;;;;;;;30.25;11.20;;;18.20;99.90;;;;;;5014601;28;20050;-85
2023/05/04 10:26:21;;;;;;;20.88;11.00;;;18.40;99.90;;;;;;5014235;28;20100;-84
2023/05/04 10:28:48;;;;;;;24.58;10.43;;;18.60;99.90;;;;;;5014325;28;20453;-83
2023/05/04 10:31:15;;;;;;;22.95;10.20;;;18.80;99.90;;;;;;4997611;28;20058;-85
2023/05/04 10:33:42;;;;;;;27.25;9.85;;;19.10;99.90;;;;;;5013245;28;20050;-85
2023/05/04 10:36:08;;;;;;;22.35;11.25;;;19.20;99.90;;;;;;5039647;28;20091;-85
2023/05/04 10:38:35;;;;;;;21.70;10.57;;;19.20;99.90;;;;;;5001043;28;20068;-82
2023/05/04 10:41:01;;;;;;;27.73;12.48;;;19.30;99.90;;;;;;5012805;28;20065;-83
2023/05/04 10:43:28;;;;;;;25.75;11.52;;;19.50;99.90;;;;;;5014990;28;20044;-87
2023/05/04 10:45:59;;;;;;;28.00;11.85;;;19.60;99.90;;;;;;4997553;28;20052;-88
2023/05/04 10:48:28;;;;;;;21.65;10.13;;;19.50;99.90;;;;;;5013413;28;20057;-83
2023/05/04 10:50:55;;;;;;;28.98;10.68;;;19.80;99.90;;;;;;5021413;28;20044;-83
2023/05/04 10:53:22;;;;;;;31.02;12.93;;;20.20;99.90;;;;;;5034204;28;20128;-84
2023/05/04 10:55:49;;;;;;;22.05;9.48;;;20.40;99.90;;;;;;5031406;28;20049;-85
2023/05/04 10:58:20;;;;;;;26.35;10.20;;;20.60;99.90;;;;;;5013921;28;20050;-85
2023/05/04 11:00:46;;;;;;;21.75;14.32;;;20.90;99.90;;;;;;5013372;28;20053;-86
2023/05/04 11:03:13;;;;;;;28.13;12.35;;;21.20;99.90;;;;;;4997694;28;20054;-87
2023/05/04 11:05:41;;;;;;;23.08;12.57;;;21.20;99.90;;;;;;5013892;28;20050;-86
2023/05/04 11:08:08;;;;;;;31.77;13.05;;;21.20;99.90;;;;;;5028997;28;20045;-84
2023/05/04 11:10:34;;;;;;;26.30;11.32;;;21.40;99.90;;;;;;5017579;28;20412;-85
2023/05/04 11:13:01;;;;;;;29.13;10.73;;;21.10;99.90;;;;;;5023888;28;20125;-84
2023/05/04 11:15:31;;;;;;;20.80;9.50;;;20.80;99.90;;;;;;5024318;28;20056;-83
2023/05/04 11:18:00;;;;;;;30.85;11.18;;;20.30;99.90;;;;;;5017559;28;20065;-84
2023/05/04 11:20:27;;;;;;;29.15;11.55;;;19.70;99.90;;;;;;5013484;28;20048;-85
2023/05/04 11:22:54;;;;;;;23.50;11.20;;;19.30;99.90;;;;;;5030585;28;20464;-83
2023/05/04 11:25:20;;;;;;;25.45;10.65;;;19.20;99.90;;;;;;5033848;28;20049;-87
2023/05/04 11:30:18;;;;;;;25.45;10.57;;;19.30;99.90;;;;;;5034617;28;20057;-83
2023/05/04 11:32:52;;;;;;;27.58;10.48;;;19.30;99.90;;;;;;5036953;28;20056;-85
2023/05/04 11:35:21;;;;;;;27.75;10.93;;;19.20;99.90;;;;;;5024357;28;20050;-86
2023/05/04 11:37:49;;;;;;;31.70;11.43;;;19.20;99.90;;;;;;5026339;28;20073;-84
2023/05/04 11:40:16;;;;;;;25.48;11.80;;;19.20;99.90;;;;;;5017185;28;20053;-83
2023/05/04 11:42:43;;;;;;;24.17;10.75;;;19.10;99.90;;;;;;5034267;28;20041;-82
2023/05/04 11:45:09;;;;;;;28.05;11.95;;;18.90;99.90;;;;;;5033379;28;20045;-83
2023/05/04 11:47:38;;;;;;;29.67;12.82;;;18.80;99.90;;;;;;5033553;28;20494;-86
2023/05/04 11:50:05;;;;;;;24.60;11.90;;;18.60;99.90;;;;;;5034069;28;20080;-82
2023/05/04 11:52:39;;;;;;;29.65;12.63;;;18.60;99.90;;;;;;5016907;28;20034;-82
2023/05/04 11:55:07;;;;;;;25.55;11.13;;;18.70;99.90;;;;;;5032939;28;20037;-83
2023/05/04 12:00:38;;;;;;;27.55;12.25;;;18.80;99.90;;;;;;5012897;28;20042;-84
2023/05/04 12:03:05;;;;;;;26.67;12.38;;;18.70;99.90;;;;;;5013522;28;20046;-83
2023/05/04 12:05:33;;;;;;;26.70;10.82;;;18.70;99.90;;;;;;5013491;28;20487;-83
2023/05/04 12:10:45;;;;;;;30.85;13.38;;;18.30;99.90;;;;;;5014325;28;20078;-83
2023/05/04 12:13:11;;;;;;;32.15;13.02;;;18.20;99.90;;;;;;4997425;28;20046;-86
2023/05/04 12:15:38;;;;;;;36.10;14.25;;;18.00;99.90;;;;;;5013571;28;20065;-84
2023/05/04 12:18:06;;;;;;;30.17;12.50;;;18.00;99.90;;;;;;5013742;28;20052;-84
2023/05/04 12:20:33;;;;;;;31.58;13.50;;;17.90;99.90;;;;;;5012931;28;20445;-83
2023/05/04 12:23:00;;;;;;;28.73;12.38;;;17.70;99.90;;;;;;5005038;28;20038;-85
2023/05/04 12:25:28;;;;;;;28.58;12.38;;;17.70;99.90;;;;;;5016653;28;20046;-82
2023/05/04 12:30:26;;;;;;;28.67;13.15;;;17.70;99.90;;;;;;5016304;28;20042;-88
2023/05/04 12:32:52;;;;;;;29.95;12.95;;;17.70;99.90;;;;;;5034714;28;20041;-86
2023/05/04 12:35:19;;;;;;;30.25;13.30;;;17.80;99.90;;;;;;5037252;28;20041;-86
2023/05/04 12:37:48;;;;;;;31.30;13.13;;;18.50;99.90;;;;;;5020357;28;20041;-85
2023/05/04 12:40:14;;;;;;;28.95;13.88;;;19.60;99.90;;;;;;5026773;28;20489;-82
2023/05/04 12:42:54;;;;;;;29.75;13.73;;;20.10;99.90;;;;;;5016883;28;20064;-86
2023/05/04 12:45:21;;;;;;;25.33;11.60;;;20.20;99.90;;;;;;5000348;28;20048;-87
2023/05/04 12:47:49;;;;;;;28.23;12.85;;;20.10;99.90;;;;;;5015111;28;20116;-83
2023/05/04 12:50:16;;;;;;;29.23;12.98;;;20.10;99.90;;;;;;5017136;28;20049;-84
2023/05/04 12:52:42;;;;;;;26.40;12.10;;;19.80;99.90;;;;;;5022579;28;20057;-83
2023/05/04 12:55:09;;;;;;;29.98;14.70;;;19.50;99.90;;;;;;5036085;28;20129;-84
2023/05/04 12:57:36;;;;;;;33.08;14.18;;;19.30;99.90;;;;;;5026931;28;20053;-85
2023/05/04 13:00:04;;;;;;;26.92;13.43;;;19.00;99.90;;;;;;5017617;28;20100;-83
2023/05/04 13:02:31;;;;;;;34.40;13.98;;;18.80;99.90;;;;;;5016317;28;20052;-84
2023/05/04 13:04:58;;;;;;;31.08;13.23;;;18.70;99.90;;;;;;4999694;28;20042;-83